St Charlotte — FWBM — position and weather

sailwx.info

Track history (hours):
 
Tides and Currents Weather Stations Pressure Air Temp Water Temp Dewpoint Dewpoint Depression Visibility Wind Speed Wind Dir Waves Ship Positions

St Charlotte

Last reported at 2014-Oct-30 08:17 UTC. Time now 2014-Oct-30 19:08 UTC.
Position N 51°55' E 004°15'.

Length 129 m; draft 6 m.

Type: Tanker. MMSI: 228331700.

Date/timePositionNaut miles runAvg speedWind from/ knotsBaromVisibWave heightAir tempDewpointWater temp
2014-Oct-30 08:17N 51°55' E 004°15'1 1.3
2014-Oct-30 07:32N 51°55' E 004°13'0 0.0
2014-Oct-30 06:24N 51°55' E 004°13'0 0.0
2014-Oct-30 05:33N 51°55' E 004°13'5 4.5
2014-Oct-30 04:33N 51°58' E 004°08'1313.0
2014-Oct-30 03:34N 51°60' E 003°47'10 9.6
2014-Oct-30 02:31N 51°56' E 003°32'4013.1
2014-Oct-29 23:29N 51°41' E 002°32'1212.7
2014-Oct-29 22:31N 51°32' E 002°19'1212.5
2014-Oct-29 21:33N 51°22' E 002°09'1211.8
2014-Oct-29 20:33N 51°12' E 001°59'1212.4
2014-Oct-29 19:33N 51°04' E 001°43'1312.5
2014-Oct-29 18:33N 50°55' E 001°29'  
2014-Oct-26 23:09N 39°00' W 009°51'914.0
2014-Oct-26 22:31N 38°52' W 009°51'1414.0
2014-Oct-26 21:30N 38°37' W 009°51'1414.0
2014-Oct-26 20:32N 38°24' W 009°50'1414.3
2014-Oct-26 19:33N 38°10' W 009°49'1714.5
2014-Oct-26 18:22N 37°53' W 009°48'1314.3
2014-Oct-26 17:25N 37°39' W 009°47'8414.2
2014-Oct-26 11:30N 36°16' W 009°36'  
2014-Oct-23 13:33N 37°01' W 009°48'1313.4
2014-Oct-23 12:33N 37°14' W 009°52'1413.5
2014-Oct-23 11:33N 37°27' W 009°55'1313.5
2014-Oct-23 10:33N 37°40' W 009°58'1413.7
2014-Oct-23 09:33N 37°54' W 010°01'1413.7
2014-Oct-23 08:33N 38°07' W 010°04'1413.5
2014-Oct-23 07:33N 38°21' W 010°08'1313.6
2014-Oct-23 06:33N 38°34' W 010°11'1413.5
2014-Oct-23 05:33N 38°47' W 010°13'1414.5
2014-Oct-23 04:33N 39°02' W 010°13'1414.0
2014-Oct-23 03:33N 39°16' W 010°13'1413.7
2014-Oct-23 02:33N 39°30' W 010°14'1413.4
2014-Oct-23 01:32N 39°43' W 010°14'  
2014-Oct-20 16:07N 49°53' W 003°10'  
Track history (hours):
 
Tides and Currents Weather Stations Pressure Air Temp Water Temp Dewpoint Dewpoint Depression Visibility Wind Speed Wind Dir Waves Ship Positions

St Charlotte

Last reported at 2014-Oct-30 08:17 UTC. Time now 2014-Oct-30 19:08 UTC.
Position N 51°55' E 004°15'.

Length 129 m; draft 6 m.

Type: Tanker. MMSI: 228331700.

Date/timePositionNaut miles runAvg speedWind from/ knotsBaromVisibWave heightAir tempDewpointWater temp
2014-Oct-30 08:17N 51°55' E 004°15'1 1.3
2014-Oct-30 07:32N 51°55' E 004°13'0 0.0
2014-Oct-30 06:24N 51°55' E 004°13'0 0.0
2014-Oct-30 05:33N 51°55' E 004°13'5 4.5
2014-Oct-30 04:33N 51°58' E 004°08'1313.0
2014-Oct-30 03:34N 51°60' E 003°47'10 9.6
2014-Oct-30 02:31N 51°56' E 003°32'4013.1
2014-Oct-29 23:29N 51°41' E 002°32'1212.7
2014-Oct-29 22:31N 51°32' E 002°19'1212.5
2014-Oct-29 21:33N 51°22' E 002°09'1211.8
2014-Oct-29 20:33N 51°12' E 001°59'1212.4
2014-Oct-29 19:33N 51°04' E 001°43'1312.5
2014-Oct-29 18:33N 50°55' E 001°29'  
2014-Oct-26 23:09N 39°00' W 009°51'914.0
2014-Oct-26 22:31N 38°52' W 009°51'1414.0
2014-Oct-26 21:30N 38°37' W 009°51'1414.0
2014-Oct-26 20:32N 38°24' W 009°50'1414.3
2014-Oct-26 19:33N 38°10' W 009°49'1714.5
2014-Oct-26 18:22N 37°53' W 009°48'1314.3
2014-Oct-26 17:25N 37°39' W 009°47'8414.2
2014-Oct-26 11:30N 36°16' W 009°36'  
2014-Oct-23 13:33N 37°01' W 009°48'1313.4
2014-Oct-23 12:33N 37°14' W 009°52'1413.5
2014-Oct-23 11:33N 37°27' W 009°55'1313.5
2014-Oct-23 10:33N 37°40' W 009°58'1413.7
2014-Oct-23 09:33N 37°54' W 010°01'1413.7
2014-Oct-23 08:33N 38°07' W 010°04'1413.5
2014-Oct-23 07:33N 38°21' W 010°08'1313.6
2014-Oct-23 06:33N 38°34' W 010°11'1413.5
2014-Oct-23 05:33N 38°47' W 010°13'1414.5
2014-Oct-23 04:33N 39°02' W 010°13'1414.0
2014-Oct-23 03:33N 39°16' W 010°13'1413.7
2014-Oct-23 02:33N 39°30' W 010°14'1413.4
2014-Oct-23 01:32N 39°43' W 010°14'  
2014-Oct-20 16:07N 49°53' W 003°10'  

Dump ship's entire track history